createdAt,value
2019-03-17T00:01:12.583Z,50.10
2019-03-17T00:03:42.914Z,50.20
2019-03-17T00:06:14.033Z,50.20
2019-03-17T00:08:43.463Z,50.10
2019-03-17T00:11:11.085Z,50.50
2019-03-17T00:13:39.511Z,50.20
2019-03-17T00:16:06.968Z,50.20
2019-03-17T00:18:35.433Z,50.30
2019-03-17T00:21:04.861Z,50.20
2019-03-17T00:23:33.903Z,50.30
2019-03-17T00:26:03.214Z,50.30
2019-03-17T00:28:34.637Z,50.30
2019-03-17T00:31:04.959Z,50.30
2019-03-17T00:33:36.391Z,50.30
2019-03-17T00:36:04.887Z,50.40
2019-03-17T00:38:34.089Z,50.40
2019-03-17T00:41:03.817Z,50.30
2019-03-17T00:43:32.748Z,50.20
2019-03-17T00:46:01.478Z,50.30
2019-03-17T00:48:32.219Z,50.30
2019-03-17T00:51:01.808Z,50.20
2019-03-17T00:53:32.327Z,50.20
2019-03-17T00:56:01.879Z,50.30
2019-03-17T00:58:32.203Z,50.30
2019-03-17T01:01:01.896Z,50.30
2019-03-17T01:03:31.637Z,50.30
2019-03-17T01:06:01.359Z,50.20
2019-03-17T01:08:30.942Z,50.40
2019-03-17T01:11:00.463Z,50.30
2019-03-17T01:13:29.453Z,50.30
2019-03-17T01:15:58.742Z,50.20
2019-03-17T01:18:28.519Z,50.20
2019-03-17T01:20:58.130Z,50.20
2019-03-17T01:23:27.707Z,50.20
2019-03-17T01:25:57.122Z,50.20
2019-03-17T01:28:26.485Z,50.20
2019-03-17T01:30:56.364Z,50.20
2019-03-17T01:33:23.937Z,50.20
2019-03-17T01:35:53.066Z,50.20
2019-03-17T01:38:24.381Z,50.20
2019-03-17T01:40:53.433Z,50.20
2019-03-17T01:43:23.018Z,50.20
2019-03-17T01:45:52.207Z,50.20
2019-03-17T01:48:21.316Z,50.20
2019-03-17T01:50:50.670Z,50.20
2019-03-17T01:53:21.778Z,50.20
2019-03-17T01:55:53.605Z,50.50
2019-03-17T01:58:22.937Z,50.20
2019-03-17T02:00:50.461Z,50.20
2019-03-17T02:03:17.829Z,50.20
2019-03-17T02:05:45.260Z,50.20
2019-03-17T02:08:12.813Z,50.30
2019-03-17T02:10:40.431Z,50.30
2019-03-17T02:13:07.624Z,50.30
2019-03-17T02:15:35.061Z,50.30
2019-03-17T02:18:02.382Z,50.40
2019-03-17T02:20:29.728Z,50.50
2019-03-17T02:22:57.275Z,50.60
2019-03-17T02:25:24.493Z,50.70
2019-03-17T02:27:51.753Z,50.70
2019-03-17T02:30:19.069Z,50.80
2019-03-17T02:32:46.623Z,50.70
2019-03-17T02:35:13.932Z,50.80
2019-03-17T02:37:41.257Z,50.90
2019-03-17T02:40:08.503Z,50.90
2019-03-17T02:42:35.834Z,51.00
2019-03-17T02:45:03.366Z,51.00
2019-03-17T02:47:30.610Z,51.70
2019-03-17T02:49:57.946Z,51.10
2019-03-17T02:52:25.529Z,51.10
2019-03-17T02:54:52.985Z,51.20
2019-03-17T02:57:20.334Z,51.20
2019-03-17T02:59:47.697Z,51.20
2019-03-17T03:02:15.109Z,51.80
2019-03-17T03:04:42.370Z,51.30
2019-03-17T03:10:16.647Z,51.30
2019-03-17T03:12:43.905Z,51.20
2019-03-17T03:15:11.118Z,51.20
2019-03-17T03:17:38.973Z,51.20
2019-03-17T03:20:07.766Z,51.20
2019-03-17T03:22:35.401Z,51.10
2019-03-17T03:25:02.711Z,51.10
2019-03-17T03:27:30.108Z,51.10
2019-03-17T03:29:57.698Z,51.00
2019-03-17T03:32:25.034Z,51.00
2019-03-17T03:34:52.397Z,51.00
2019-03-17T03:37:19.707Z,51.00
2019-03-17T03:39:47.051Z,50.90
2019-03-17T03:42:14.404Z,50.90
2019-03-17T03:44:41.640Z,51.00
2019-03-17T03:47:08.974Z,50.90
2019-03-17T03:49:36.302Z,51.00
2019-03-17T03:52:03.628Z,51.00
2019-03-17T03:54:31.165Z,50.90
2019-03-17T03:56:58.425Z,50.90
2019-03-17T03:59:25.773Z,50.80
2019-03-17T04:01:53.205Z,50.80
2019-03-17T04:04:20.546Z,50.80
2019-03-17T04:06:47.773Z,50.80
2019-03-17T04:09:15.128Z,50.70
2019-03-17T04:11:42.496Z,50.70
2019-03-17T04:14:09.831Z,50.70
2019-03-17T04:16:37.162Z,50.70
2019-03-17T04:19:04.800Z,50.60
2019-03-17T04:21:32.005Z,50.70
2019-03-17T04:23:59.343Z,50.60
2019-03-17T04:26:26.794Z,50.90
2019-03-17T04:28:54.997Z,50.50
2019-03-17T04:31:22.345Z,50.50
2019-03-17T04:33:49.550Z,50.50
2019-03-17T04:36:17.025Z,50.00
2019-03-17T04:38:44.322Z,50.50
2019-03-17T04:41:11.652Z,50.60
2019-03-17T04:43:39.237Z,50.50
2019-03-17T04:46:06.549Z,50.40
2019-03-17T04:48:34.060Z,50.40
2019-03-17T04:51:01.497Z,50.40
2019-03-17T04:53:28.868Z,50.40
2019-03-17T04:55:56.204Z,50.40
2019-03-17T04:58:23.596Z,50.40
2019-03-17T05:00:51.007Z,50.30
2019-03-17T05:03:18.356Z,50.30
2019-03-17T05:05:45.586Z,50.30
2019-03-17T05:08:12.981Z,50.30
2019-03-17T05:10:40.313Z,50.30
2019-03-17T05:13:07.570Z,50.20
2019-03-17T05:15:34.765Z,50.20
2019-03-17T05:18:01.995Z,50.30
2019-03-17T05:20:29.325Z,50.30
2019-03-17T05:22:56.677Z,50.20
2019-03-17T05:25:24.039Z,50.20
2019-03-17T05:27:51.337Z,50.20
2019-03-17T05:30:18.673Z,50.20
2019-03-17T05:32:45.980Z,50.20
2019-03-17T05:35:13.315Z,50.20
2019-03-17T05:37:40.531Z,50.20
2019-03-17T05:40:07.918Z,50.30
2019-03-17T05:42:35.273Z,50.20
2019-03-17T05:45:02.710Z,50.20
2019-03-17T05:47:30.033Z,50.20
2019-03-17T05:49:57.393Z,50.10
2019-03-17T05:52:24.761Z,50.10
2019-03-17T05:54:52.266Z,50.20
2019-03-17T05:57:19.589Z,50.20
2019-03-17T05:59:47.026Z,50.20
2019-03-17T06:02:14.346Z,50.10
2019-03-17T06:04:41.649Z,50.10
2019-03-17T06:07:18.194Z,50.10
2019-03-17T06:09:38.716Z,50.10
2019-03-17T06:12:06.045Z,50.10
2019-03-17T06:14:33.250Z,50.70
2019-03-17T06:17:00.757Z,50.00
2019-03-17T06:19:31.025Z,50.20
2019-03-17T06:22:00.455Z,50.10
2019-03-17T06:24:28.349Z,50.10
2019-03-17T06:26:55.676Z,50.00
2019-03-17T06:29:23.009Z,50.00
2019-03-17T06:31:50.313Z,50.10
2019-03-17T06:34:17.520Z,50.00
2019-03-17T06:36:44.841Z,50.10
2019-03-17T06:39:12.058Z,50.10
2019-03-17T06:41:40.074Z,50.10
2019-03-17T06:44:08.505Z,50.10
2019-03-17T06:46:35.704Z,50.20
2019-03-17T06:49:03.040Z,50.10
2019-03-17T06:51:30.252Z,50.00
2019-03-17T06:53:57.673Z,50.00
2019-03-17T06:56:25.028Z,50.00
2019-03-17T06:58:52.235Z,50.10
2019-03-17T07:01:19.433Z,50.00
2019-03-17T07:03:46.741Z,50.10
2019-03-17T07:06:14.056Z,50.00
2019-03-17T07:08:41.261Z,50.00
2019-03-17T07:11:10.955Z,50.00
2019-03-17T07:13:38.263Z,50.00
2019-03-17T07:16:05.509Z,50.00
2019-03-17T07:18:32.715Z,50.00
2019-03-17T07:21:00.125Z,50.00
2019-03-17T07:23:27.427Z,50.00
2019-03-17T07:25:54.689Z,50.00
2019-03-17T07:28:21.993Z,49.90
2019-03-17T07:30:49.215Z,50.00
2019-03-17T07:33:16.554Z,50.00
2019-03-17T07:35:46.277Z,50.00
2019-03-17T07:38:12.849Z,50.00
2019-03-17T07:40:40.152Z,50.00
2019-03-17T07:43:07.514Z,50.00
2019-03-17T07:45:34.849Z,50.00
2019-03-17T07:48:02.249Z,50.60
2019-03-17T07:50:29.579Z,50.50
2019-03-17T07:52:57.107Z,49.90
2019-03-17T07:55:24.633Z,50.00
2019-03-17T07:57:51.964Z,50.00
2019-03-17T08:00:30.847Z,50.00
2019-03-17T08:02:48.324Z,50.00
2019-03-17T08:05:15.653Z,50.00
2019-03-17T08:07:43.176Z,50.00
2019-03-17T08:10:10.787Z,50.00
2019-03-17T08:12:38.533Z,50.00
2019-03-17T08:15:06.621Z,50.00
2019-03-17T08:17:33.946Z,50.00
2019-03-17T08:20:01.259Z,49.90
2019-03-17T08:22:28.596Z,49.90
2019-03-17T08:24:56.294Z,50.00
2019-03-17T08:27:23.681Z,49.90
2019-03-17T08:29:51.089Z,50.00
2019-03-17T08:32:18.573Z,49.90
2019-03-17T08:34:45.822Z,50.00
2019-03-17T08:37:13.141Z,50.00
2019-03-17T08:39:40.447Z,50.00
2019-03-17T08:42:08.082Z,50.00
2019-03-17T08:44:35.389Z,50.00
2019-03-17T08:47:02.857Z,50.00
2019-03-17T08:49:30.169Z,50.00
2019-03-17T08:51:57.681Z,49.90
2019-03-17T08:54:24.904Z,49.90
2019-03-17T08:56:52.206Z,49.90
2019-03-17T08:59:19.409Z,50.00
2019-03-17T09:01:47.713Z,50.10
2019-03-17T09:04:15.084Z,50.00
2019-03-17T09:06:42.384Z,50.10
2019-03-17T09:09:09.688Z,50.00
2019-03-17T09:11:37.336Z,50.00
2019-03-17T09:14:04.691Z,50.60
2019-03-17T09:16:31.984Z,50.00
2019-03-17T09:18:59.316Z,50.00
2019-03-17T09:21:26.673Z,50.00
2019-03-17T09:23:53.984Z,49.90
2019-03-17T09:26:21.587Z,50.00
2019-03-17T09:28:48.950Z,50.30
2019-03-17T09:31:16.169Z,49.90
2019-03-17T09:34:55.097Z,50.00
2019-03-17T09:37:22.489Z,50.00
2019-03-17T09:39:49.792Z,50.00
2019-03-17T09:42:18.201Z,50.00
2019-03-17T09:44:45.997Z,50.00
2019-03-17T09:47:13.316Z,50.00
2019-03-17T09:49:40.566Z,50.00
2019-03-17T09:52:07.756Z,50.00
2019-03-17T09:54:35.108Z,49.90
2019-03-17T09:57:02.636Z,49.90
2019-03-17T09:59:30.965Z,49.90
2019-03-17T10:01:58.268Z,49.90
2019-03-17T10:04:25.600Z,49.90
2019-03-17T10:06:52.804Z,49.90
2019-03-17T10:09:22.642Z,50.00
2019-03-17T10:11:49.865Z,49.90
2019-03-17T10:14:17.976Z,50.00
2019-03-17T10:16:45.283Z,50.00
2019-03-17T10:19:12.613Z,50.00
2019-03-17T10:21:39.925Z,50.00
2019-03-17T10:24:07.260Z,49.90
2019-03-17T10:26:34.664Z,49.90
2019-03-17T10:29:02.025Z,49.90
2019-03-17T10:31:29.528Z,49.90
2019-03-17T10:33:57.109Z,49.90
2019-03-17T10:36:24.325Z,49.90
2019-03-17T10:38:51.717Z,50.00
2019-03-17T10:41:19.028Z,50.00
2019-03-17T10:43:46.283Z,49.80
2019-03-17T10:46:14.024Z,49.90
2019-03-17T10:48:41.369Z,49.80
2019-03-17T10:51:08.672Z,49.80
2019-03-17T10:53:36.118Z,49.90
2019-03-17T10:56:03.481Z,49.90
2019-03-17T10:58:30.696Z,49.90
2019-03-17T11:00:58.048Z,49.90
2019-03-17T11:03:25.385Z,49.90
2019-03-17T11:05:54.523Z,50.00
2019-03-17T11:08:21.977Z,50.00
2019-03-17T11:10:49.510Z,49.90
2019-03-17T11:13:16.728Z,50.00
2019-03-17T11:15:44.056Z,50.00
2019-03-17T11:18:11.637Z,50.00
2019-03-17T11:20:39.209Z,50.00
2019-03-17T11:23:06.548Z,50.10
2019-03-17T11:25:33.919Z,50.10
2019-03-17T11:28:01.256Z,50.00
2019-03-17T11:32:06.860Z,50.00
2019-03-17T11:34:34.352Z,50.10
2019-03-17T11:37:01.680Z,50.10
2019-03-17T11:39:37.803Z,50.10
2019-03-17T11:41:58.154Z,50.10
2019-03-17T11:44:25.372Z,50.10
2019-03-17T11:46:52.688Z,50.00
2019-03-17T11:49:20.054Z,50.10
2019-03-17T11:51:47.382Z,50.10
2019-03-17T11:54:14.742Z,50.10
2019-03-17T11:56:42.170Z,50.10
2019-03-17T11:59:09.501Z,50.00
2019-03-17T12:01:36.845Z,50.00
2019-03-17T12:04:05.425Z,50.10
2019-03-17T12:06:33.013Z,50.10
2019-03-17T12:09:00.631Z,50.00
2019-03-17T12:11:27.969Z,50.40
2019-03-17T12:13:55.607Z,50.00
2019-03-17T12:16:23.090Z,49.60
2019-03-17T12:18:50.413Z,50.10
2019-03-17T12:21:17.955Z,50.00
2019-03-17T12:23:45.865Z,50.00
2019-03-17T12:26:14.185Z,50.00
2019-03-17T12:28:41.413Z,50.00
2019-03-17T12:31:08.728Z,50.00
2019-03-17T12:33:36.128Z,50.10
2019-03-17T12:36:03.732Z,50.00
2019-03-17T12:38:31.061Z,50.00
2019-03-17T12:40:58.280Z,50.00
2019-03-17T12:43:25.618Z,50.00
2019-03-17T12:45:52.933Z,49.70
2019-03-17T12:48:20.255Z,50.60
2019-03-17T12:50:47.673Z,50.00
2019-03-17T12:53:15.484Z,50.00
2019-03-17T12:55:42.988Z,50.00
2019-03-17T12:58:10.447Z,50.00
2019-03-17T13:00:38.887Z,50.00
2019-03-17T13:03:06.114Z,50.00
2019-03-17T13:05:33.374Z,50.00
2019-03-17T13:08:00.711Z,49.90
2019-03-17T13:10:28.146Z,50.00
2019-03-17T13:12:55.585Z,49.90
2019-03-17T13:15:22.909Z,49.90
2019-03-17T13:17:50.226Z,50.00
2019-03-17T13:20:17.553Z,50.00
2019-03-17T13:22:44.869Z,50.00
2019-03-17T13:25:12.188Z,50.00
2019-03-17T13:27:39.822Z,49.90
2019-03-17T13:30:08.593Z,50.00
2019-03-17T13:32:36.113Z,49.90
2019-03-17T13:35:03.473Z,49.90
2019-03-17T13:37:30.690Z,49.90
2019-03-17T13:39:58.150Z,49.90
2019-03-17T13:42:25.677Z,49.90
2019-03-17T13:44:53.233Z,49.90
2019-03-17T13:47:20.472Z,50.00
2019-03-17T13:49:47.958Z,49.80
2019-03-17T13:52:15.291Z,49.90
2019-03-17T13:54:42.809Z,50.00
2019-03-17T13:57:10.049Z,49.90
2019-03-17T13:59:38.732Z,49.90
2019-03-17T14:02:06.265Z,49.90
2019-03-17T14:04:33.477Z,50.00
2019-03-17T14:07:00.789Z,50.00
2019-03-17T14:09:28.125Z,50.00
2019-03-17T14:11:55.450Z,50.00
2019-03-17T14:14:22.890Z,50.00
2019-03-17T14:16:50.241Z,50.20
2019-03-17T14:19:17.450Z,49.90
2019-03-17T14:21:44.803Z,50.00
2019-03-17T14:24:12.257Z,49.90
2019-03-17T14:26:39.838Z,50.00
2019-03-17T14:29:13.761Z,49.90
2019-03-17T14:31:41.578Z,50.00
2019-03-17T14:34:09.939Z,49.90
2019-03-17T14:36:37.622Z,49.90
2019-03-17T14:39:06.229Z,50.00
2019-03-17T14:41:33.570Z,50.00
2019-03-17T14:44:01.074Z,50.00
2019-03-17T14:46:28.685Z,50.00
2019-03-17T14:48:56.190Z,50.00
2019-03-17T14:51:23.672Z,50.00
2019-03-17T14:53:51.111Z,50.10
2019-03-17T14:56:18.550Z,50.10
2019-03-17T14:58:45.893Z,50.00
2019-03-17T15:01:13.270Z,50.00
2019-03-17T15:03:40.721Z,50.10
2019-03-17T15:06:08.026Z,50.10
2019-03-17T15:08:35.589Z,50.10
2019-03-17T15:11:06.120Z,50.10
2019-03-17T15:13:32.474Z,50.10
2019-03-17T15:16:03.155Z,50.10
2019-03-17T15:18:29.233Z,50.30
2019-03-17T15:20:56.816Z,50.10
2019-03-17T15:23:24.178Z,50.10
2019-03-17T15:25:51.597Z,50.10
2019-03-17T15:28:19.190Z,50.20
2019-03-17T15:31:00.424Z,50.20
2019-03-17T15:33:15.450Z,50.20
2019-03-17T15:35:42.777Z,50.20
2019-03-17T15:38:10.125Z,50.20
2019-03-17T15:40:38.402Z,50.20
2019-03-17T15:43:05.905Z,50.80
2019-03-17T15:45:33.229Z,50.10
2019-03-17T15:48:00.567Z,50.80
2019-03-17T15:50:27.894Z,50.20
2019-03-17T15:52:55.275Z,50.20
2019-03-17T15:55:22.727Z,50.30
2019-03-17T15:57:51.293Z,50.20
2019-03-17T16:00:24.806Z,50.20
2019-03-17T16:02:48.177Z,50.20
2019-03-17T16:05:15.501Z,50.20
2019-03-17T16:07:42.978Z,50.30
2019-03-17T16:10:11.557Z,50.20
2019-03-17T16:12:39.449Z,50.20
2019-03-17T16:15:08.282Z,50.20
2019-03-17T16:17:35.733Z,50.20
2019-03-17T16:20:03.421Z,50.20
2019-03-17T16:22:30.754Z,50.30
2019-03-17T16:24:57.969Z,50.20
2019-03-17T16:27:25.584Z,50.20
2019-03-17T16:29:52.901Z,50.20
2019-03-17T16:32:20.435Z,50.20
2019-03-17T16:34:47.739Z,50.20
2019-03-17T16:37:15.050Z,50.30
2019-03-17T16:39:42.494Z,50.20
2019-03-17T16:42:14.097Z,50.20
2019-03-17T16:44:41.662Z,50.20
2019-03-17T16:47:08.973Z,50.20
2019-03-17T16:49:36.514Z,50.20
2019-03-17T16:52:04.223Z,50.20
2019-03-17T16:54:31.757Z,50.20
2019-03-17T16:57:00.062Z,50.20
2019-03-17T16:59:27.376Z,50.20
2019-03-17T17:01:54.869Z,50.30
2019-03-17T17:04:22.277Z,50.20
2019-03-17T17:06:49.585Z,50.30
2019-03-17T17:09:16.921Z,50.30
2019-03-17T17:11:55.512Z,50.20
2019-03-17T17:14:14.299Z,50.30
2019-03-17T17:16:41.697Z,50.30
2019-03-17T17:19:08.930Z,50.20
2019-03-17T17:21:36.462Z,50.20
2019-03-17T17:24:04.617Z,50.20
2019-03-17T17:26:37.377Z,50.20
2019-03-17T17:29:01.042Z,50.30
2019-03-17T17:31:28.350Z,50.20
2019-03-17T17:33:55.891Z,50.30
2019-03-17T17:36:23.440Z,50.30
2019-03-17T17:38:50.718Z,50.30
2019-03-17T17:41:18.059Z,50.30
2019-03-17T17:43:46.452Z,50.90
2019-03-17T17:46:13.738Z,50.20
2019-03-17T17:48:41.269Z,50.30
2019-03-17T17:51:08.802Z,50.20
2019-03-17T17:53:36.026Z,50.20
2019-03-17T17:56:03.333Z,50.20
2019-03-17T17:58:31.650Z,50.20
2019-03-17T18:00:59.010Z,50.30
2019-03-17T18:03:27.410Z,50.20
2019-03-17T18:05:54.721Z,50.20
2019-03-17T18:08:22.030Z,50.30
2019-03-17T18:10:49.333Z,50.30
2019-03-17T18:13:16.643Z,50.30
2019-03-17T18:15:44.032Z,50.30
2019-03-17T18:18:11.345Z,50.20
2019-03-17T18:20:39.521Z,50.30
2019-03-17T18:23:17.168Z,50.20
2019-03-17T18:25:36.095Z,50.30
2019-03-17T18:28:03.738Z,50.30
2019-03-17T18:30:30.950Z,50.30
2019-03-17T18:32:58.269Z,50.20
2019-03-17T18:35:25.585Z,50.30
2019-03-17T18:37:54.458Z,50.20
2019-03-17T18:40:21.918Z,50.20
2019-03-17T18:42:51.263Z,50.30
2019-03-17T18:45:18.889Z,50.20
2019-03-17T18:47:46.228Z,50.20
2019-03-17T18:50:20.096Z,50.20
2019-03-17T18:52:43.138Z,50.30
2019-03-17T18:55:14.738Z,50.30
2019-03-17T18:57:42.293Z,50.30
2019-03-17T19:00:12.162Z,50.30
2019-03-17T19:02:40.688Z,50.30
2019-03-17T19:05:08.154Z,50.30
2019-03-17T19:07:37.502Z,50.30
2019-03-17T19:10:05.105Z,50.20
2019-03-17T19:12:44.618Z,50.20
2019-03-17T19:15:01.773Z,50.30
2019-03-17T19:17:29.067Z,50.30
2019-03-17T19:19:56.280Z,50.20
2019-03-17T19:22:23.810Z,50.30
2019-03-17T19:24:51.299Z,50.30
2019-03-17T19:27:18.774Z,50.20
2019-03-17T19:29:46.101Z,50.80
2019-03-17T19:32:13.654Z,50.20
2019-03-17T19:34:41.183Z,50.30
2019-03-17T19:37:08.525Z,50.20
2019-03-17T19:39:36.076Z,50.20
2019-03-17T19:42:03.412Z,50.20
2019-03-17T19:44:30.977Z,50.20
2019-03-17T19:46:58.309Z,50.30
2019-03-17T19:49:25.833Z,50.20
2019-03-17T19:51:53.181Z,50.20
2019-03-17T19:54:20.970Z,50.30
2019-03-17T19:56:49.931Z,50.10
2019-03-17T19:59:17.915Z,50.30
2019-03-17T20:01:45.465Z,50.30
2019-03-17T20:04:12.794Z,50.20
2019-03-17T20:06:40.198Z,50.30
2019-03-17T20:09:07.546Z,50.30
2019-03-17T20:11:34.802Z,50.30
2019-03-17T20:14:02.344Z,50.30
2019-03-17T20:16:29.705Z,50.20
2019-03-17T20:18:57.226Z,50.30
2019-03-17T20:21:24.533Z,50.20
2019-03-17T20:23:51.853Z,50.20
2019-03-17T20:26:19.062Z,50.20
2019-03-17T20:28:46.592Z,50.20
2019-03-17T20:31:14.006Z,50.20
2019-03-17T20:33:41.229Z,50.20
2019-03-17T20:36:08.776Z,50.20
2019-03-17T20:38:36.333Z,50.20
2019-03-17T20:41:05.408Z,50.20
2019-03-17T20:43:35.215Z,50.20
2019-03-17T20:46:01.752Z,50.20
2019-03-17T20:48:29.273Z,50.20
2019-03-17T20:50:59.117Z,50.30
2019-03-17T20:53:25.857Z,50.20
2019-03-17T20:55:53.222Z,50.20
2019-03-17T20:58:20.533Z,50.20
2019-03-17T21:00:47.850Z,50.30
2019-03-17T21:03:15.548Z,50.20
2019-03-17T21:05:42.869Z,50.20
2019-03-17T21:08:10.205Z,50.20
2019-03-17T21:10:38.230Z,50.20
2019-03-17T21:13:05.549Z,50.20
2019-03-17T21:15:32.993Z,50.20
2019-03-17T21:18:00.537Z,50.20
2019-03-17T21:20:27.869Z,50.20
2019-03-17T21:22:55.185Z,50.10
2019-03-17T21:25:22.602Z,50.10
2019-03-17T21:27:50.166Z,50.10
2019-03-17T21:30:18.810Z,50.30
2019-03-17T21:32:46.633Z,50.10
2019-03-17T21:35:14.153Z,50.10
2019-03-17T21:37:41.479Z,50.20
2019-03-17T21:40:08.966Z,49.70
2019-03-17T21:42:36.436Z,50.20
2019-03-17T21:45:04.009Z,50.20
2019-03-17T21:47:32.414Z,50.20
2019-03-17T21:49:59.809Z,50.20
2019-03-17T21:52:27.422Z,50.20
2019-03-17T21:54:54.785Z,50.20
2019-03-17T21:57:24.261Z,50.20
2019-03-17T21:59:53.942Z,50.20
2019-03-17T22:02:21.530Z,50.20
2019-03-17T22:04:50.142Z,50.20
2019-03-17T22:07:18.874Z,50.20
2019-03-17T22:09:47.885Z,50.20
2019-03-17T22:12:16.385Z,50.20
2019-03-17T22:14:44.195Z,50.20
2019-03-17T22:17:11.709Z,50.20
2019-03-17T22:19:39.321Z,50.20
2019-03-17T22:22:09.009Z,50.20
2019-03-17T22:24:36.403Z,50.20
2019-03-17T22:27:03.717Z,50.20
2019-03-17T22:29:31.035Z,50.30
2019-03-17T22:31:58.346Z,50.10
2019-03-17T22:34:25.669Z,50.20
2019-03-17T22:36:53.089Z,50.30
2019-03-17T22:39:21.260Z,50.20
2019-03-17T22:41:51.072Z,50.20
2019-03-17T22:44:24.398Z,50.10
2019-03-17T22:46:49.181Z,50.10
2019-03-17T22:49:16.414Z,50.10
2019-03-17T22:51:43.776Z,50.20
2019-03-17T22:54:11.139Z,50.10
2019-03-17T22:56:38.818Z,50.20
2019-03-17T22:59:06.115Z,50.10
2019-03-17T23:01:33.654Z,50.10
2019-03-17T23:04:01.012Z,50.10
2019-03-17T23:06:28.222Z,50.10
2019-03-17T23:08:55.539Z,50.10
2019-03-17T23:11:22.846Z,50.20
2019-03-17T23:13:50.214Z,50.10
2019-03-17T23:16:17.546Z,50.20
2019-03-17T23:18:44.874Z,50.10
2019-03-17T23:21:12.102Z,50.20
2019-03-17T23:23:39.619Z,50.20
2019-03-17T23:26:07.076Z,50.30
2019-03-17T23:28:35.423Z,50.20
2019-03-17T23:31:02.733Z,50.20
2019-03-17T23:33:30.140Z,50.20
2019-03-17T23:35:57.695Z,50.20
2019-03-17T23:38:24.910Z,50.20
2019-03-17T23:40:52.337Z,50.20
2019-03-17T23:43:19.739Z,50.20
2019-03-17T23:45:47.090Z,50.20
2019-03-17T23:48:14.293Z,50.20
2019-03-17T23:50:41.546Z,50.20
2019-03-17T23:53:08.846Z,50.20
2019-03-17T23:55:36.177Z,50.20
2019-03-17T23:58:03.494Z,50.20
